createdAt,value
2023-06-28T00:10:29.937Z,1.20
2023-06-28T00:25:32.489Z,1.60
2023-06-28T00:40:35.063Z,1.50
2023-06-28T00:55:36.902Z,1.67
2023-06-28T01:10:38.977Z,1.50
2023-06-28T01:25:40.820Z,1.20
2023-06-28T01:40:45.266Z,1.30
2023-06-28T01:55:46.996Z,1.47
2023-06-28T02:10:48.710Z,1.20
2023-06-28T02:25:51.311Z,1.40
2023-06-28T02:40:53.978Z,1.27
2023-06-28T02:55:56.469Z,1.50
2023-06-28T03:10:59.279Z,1.10
2023-06-28T03:26:01.870Z,1.40
2023-06-28T03:41:03.537Z,1.27
2023-06-28T03:56:05.268Z,1.17
2023-06-28T04:11:07.766Z,1.40
2023-06-28T04:26:10.413Z,1.47
2023-06-28T04:41:12.140Z,1.40
2023-06-28T04:56:15.110Z,1.33
2023-06-28T05:11:17.647Z,1.50
2023-06-28T05:26:19.307Z,1.10
2023-06-28T05:41:20.992Z,1.50
2023-06-28T05:56:23.544Z,1.40
2023-06-28T06:11:25.259Z,1.27
2023-06-28T06:26:26.967Z,1.50
2023-06-28T06:41:29.478Z,1.30
2023-06-28T06:56:31.994Z,1.50
2023-06-28T07:11:34.575Z,1.30
2023-06-28T07:26:36.287Z,1.43
2023-06-28T07:41:38.075Z,1.83
2023-06-28T07:56:40.590Z,1.53
2023-06-28T08:11:43.104Z,1.70
2023-06-28T08:26:45.772Z,1.13
2023-06-28T08:41:50.452Z,1.40
2023-06-28T08:57:10.543Z,1.13
2023-06-28T09:12:14.575Z,1.53
2023-06-28T09:27:17.691Z,1.10
2023-06-28T09:42:20.827Z,1.30
2023-06-28T09:57:28.874Z,1.20
2023-06-28T10:12:33.197Z,1.30
2023-06-28T10:27:36.607Z,2.17
2023-06-28T10:42:43.135Z,2.43
2023-06-28T10:57:44.806Z,12.90
2023-06-28T11:12:53.072Z,6.20
2023-06-28T11:27:55.691Z,6.13
2023-06-28T11:42:58.496Z,5.37
2023-06-28T11:58:01.208Z,4.67
2023-06-28T12:13:02.890Z,5.07
2023-06-28T12:28:04.706Z,3.60
2023-06-28T12:43:17.251Z,4.03
2023-06-28T12:58:20.567Z,3.17
2023-06-28T13:13:23.110Z,3.13
2023-06-28T13:28:25.662Z,3.13
2023-06-28T13:43:28.195Z,2.50
2023-06-28T13:58:29.893Z,2.80
2023-06-28T14:13:31.648Z,2.43
2023-06-28T14:28:34.231Z,2.73
2023-06-28T14:43:36.913Z,2.20
2023-06-28T14:58:38.615Z,2.27
2023-06-28T15:13:41.125Z,2.60
2023-06-28T15:28:42.803Z,2.27
2023-06-28T15:43:45.318Z,1.90
2023-06-28T15:58:50.430Z,1.80
2023-06-28T16:13:53.370Z,1.83
2023-06-28T16:28:56.092Z,2.07
2023-06-28T16:43:57.796Z,2.10
2023-06-28T16:58:59.468Z,2.10
2023-06-28T17:14:02.225Z,1.70
2023-06-28T17:29:05.271Z,1.90
2023-06-28T17:44:06.994Z,1.90
2023-06-28T17:59:08.755Z,2.10
2023-06-28T18:14:11.299Z,1.70
2023-06-28T18:29:13.917Z,1.67
2023-06-28T18:44:15.688Z,2.03
2023-06-28T18:59:17.410Z,1.80
2023-06-28T19:14:20.006Z,2.00
2023-06-28T19:29:22.617Z,2.00
2023-06-28T19:44:24.320Z,2.10
2023-06-28T19:59:26.001Z,1.80
2023-06-28T20:14:28.600Z,1.90
2023-06-28T20:29:31.340Z,2.07
2023-06-28T20:44:33.011Z,1.60
2023-06-28T20:59:35.567Z,1.73
2023-06-28T21:14:38.091Z,2.07
2023-06-28T21:29:39.870Z,1.60
2023-06-28T21:44:42.466Z,1.83
2023-06-28T21:59:49.190Z,1.70
2023-06-28T22:14:51.719Z,1.60
2023-06-28T22:29:54.517Z,1.53
2023-06-28T22:44:57.003Z,1.73
2023-06-28T22:59:59.514Z,1.77
2023-06-28T23:15:02.218Z,1.50
2023-06-28T23:30:05.278Z,1.80
2023-06-28T23:45:08.467Z,1.70
